Time;durP1;ratioP1;P1;durP2;ratioP2;P2;SDS_P1;SDS_P2;PMS_P1;PMS_P2;Temp;Humidity;BMP_temperature;BMP_pressure;BME280_temperature;BME280_humidity;BME280_pressure;Samples;Min_cycle;Max_cycle;Signal;HPM_P1;HPM_P2
2024/03/20 00:01:14;;;;;;;17.13;15.33;;;;;;;14.15;51.82;101576.09;5076205;28;20195;-76
2024/03/20 00:03:39;;;;;;;20.00;17.20;;;;;;;14.41;51.29;101568.47;5077346;28;20276;-77
2024/03/20 00:06:05;;;;;;;17.43;15.57;;;;;;;14.52;50.92;101565.00;5076883;28;20173;-76
2024/03/20 00:08:30;;;;;;;21.10;18.17;;;;;;;14.27;51.65;101562.22;5077191;28;20173;-75
2024/03/20 00:10:56;;;;;;;17.97;15.70;;;;;;;14.60;50.75;101568.56;5077425;28;20188;-78
2024/03/20 00:13:22;;;;;;;17.80;15.90;;;;;;;14.12;51.62;101566.47;5075945;28;20194;-77
2024/03/20 00:15:48;;;;;;;18.27;16.40;;;;;;;14.91;50.21;101543.41;5074553;28;20272;-76
2024/03/20 00:18:14;;;;;;;18.53;16.57;;;;;;;14.79;50.54;101544.22;5076230;28;20930;-76
2024/03/20 00:20:40;;;;;;;17.53;15.73;;;;;;;14.84;50.37;101548.63;5080989;28;20196;-77
2024/03/20 00:23:07;;;;;;;17.60;15.83;;;;;;;14.92;50.06;101544.28;5096475;28;20417;-77
2024/03/20 00:25:33;;;;;;;20.40;16.03;;;;;;;14.80;50.35;101547.72;5097135;28;20373;-76
2024/03/20 00:27:58;;;;;;;19.27;16.27;;;;;;;15.19;49.92;101548.75;5096504;28;20875;-75
2024/03/20 00:30:23;;;;;;;18.77;16.87;;;;;;;15.39;49.59;101545.34;5096651;28;20469;-76
2024/03/20 00:32:49;;;;;;;18.40;16.40;;;;;;;15.36;49.21;101545.31;5096168;28;20199;-76
2024/03/20 00:35:14;;;;;;;18.97;16.83;;;;;;;15.46;49.04;101542.69;5096204;28;20202;-76
2024/03/20 00:37:39;;;;;;;18.03;15.87;;;;;;;15.59;48.93;101538.38;5095255;28;20221;-76
2024/03/20 00:40:06;;;;;;;18.83;16.93;;;;;;;15.60;48.71;101536.59;5078515;28;20220;-75
2024/03/20 00:42:31;;;;;;;19.20;17.27;;;;;;;15.64;48.53;101548.88;5092140;28;20172;-77
2024/03/20 00:44:56;;;;;;;18.33;16.37;;;;;;;15.68;48.58;101545.38;5096576;28;20385;-76
2024/03/20 00:47:21;;;;;;;19.60;15.83;;;;;;;15.63;48.91;101547.13;5095068;28;20440;-77
2024/03/20 00:49:47;;;;;;;18.77;16.57;;;;;;;15.44;48.98;101541.84;5095751;28;20190;-76
2024/03/20 00:52:13;;;;;;;18.50;16.67;;;;;;;15.24;49.42;101541.78;5095630;28;20175;-75
2024/03/20 00:54:39;;;;;;;17.13;15.33;;;;;;;14.90;49.98;101554.78;5095683;28;20187;-75
2024/03/20 00:57:05;;;;;;;20.40;16.43;;;;;;;15.12;49.63;101553.09;5094993;28;20191;-76
2024/03/20 00:59:30;;;;;;;17.53;15.27;;;;;;;15.63;49.00;101545.38;5095716;28;20437;-75
2024/03/20 01:01:55;;;;;;;18.10;15.60;;;;;;;15.89;47.99;101551.59;5096618;28;20164;-76
2024/03/20 01:04:20;;;;;;;19.13;16.20;;;;;;;15.11;49.73;101546.13;5094548;28;20175;-76
2024/03/20 01:06:46;;;;;;;19.23;17.00;;;;;;;14.81;50.31;101545.09;5094527;28;20244;-75
2024/03/20 01:09:11;;;;;;;18.60;16.33;;;;;;;15.32;49.44;101541.81;5094414;28;20203;-75
2024/03/20 01:11:36;;;;;;;21.23;16.77;;;;;;;15.63;48.79;101539.25;5094670;28;20172;-77
2024/03/20 01:14:02;;;;;;;17.70;15.87;;;;;;;15.78;48.36;101535.75;5095067;28;20164;-77
2024/03/20 01:16:28;;;;;;;19.10;16.63;;;;;;;15.62;48.71;101541.00;5094240;28;20248;-76
2024/03/20 01:18:54;;;;;;;17.97;16.07;;;;;;;15.59;48.69;101542.75;5094943;28;20175;-75
2024/03/20 01:21:19;;;;;;;19.07;16.90;;;;;;;15.83;48.33;101537.56;5095270;28;20223;-74
2024/03/20 01:23:45;;;;;;;19.33;15.97;;;;;;;15.73;48.68;101537.50;5097071;28;20958;-75
2024/03/20 01:26:10;;;;;;;20.20;16.27;;;;;;;15.58;48.60;101539.22;5100568;28;20649;-76
2024/03/20 01:28:35;;;;;;;18.57;16.67;;;;;;;14.82;50.39;101541.59;5095882;28;20172;-76
2024/03/20 01:31:00;;;;;;;19.07;17.03;;;;;;;14.88;50.54;101545.13;5095760;28;20196;-76
2024/03/20 01:33:26;;;;;;;18.60;16.67;;;;;;;15.13;49.84;101547.00;5094483;28;20561;-76
2024/03/20 01:35:51;;;;;;;19.60;16.77;;;;;;;14.82;50.31;101538.97;5095371;28;20219;-76
2024/03/20 01:38:16;;;;;;;19.13;16.67;;;;;;;15.01;49.98;101535.59;5095460;28;20198;-75
2024/03/20 01:40:42;;;;;;;28.30;17.10;;;;;;;14.27;51.61;101544.72;5093634;28;20230;-75
2024/03/20 01:43:19;;;;;;;19.73;16.67;;;;;;;13.78;52.72;101545.22;5073352;28;20165;-76
2024/03/20 01:45:45;;;;;;;18.23;16.33;;;;;;;14.18;52.10;101543.78;5073640;28;20591;-75
2024/03/20 01:48:11;;;;;;;19.27;17.30;;;;;;;14.25;52.13;101543.84;5074037;28;20399;-75
2024/03/20 01:50:36;;;;;;;18.20;16.30;;;;;;;14.33;52.09;101543.91;5080778;28;20435;-76
2024/03/20 01:53:04;;;;;;;18.03;16.23;;;;;;;14.31;52.63;101538.66;5094179;28;20168;-76
2024/03/20 01:55:29;;;;;;;18.77;16.77;;;;;;;13.94;53.52;101540.13;5093984;28;20183;-76
2024/03/20 01:57:55;;;;;;;19.17;17.23;;;;;;;13.67;54.74;101546.84;5093151;28;20896;-76
2024/03/20 02:00:21;;;;;;;21.40;16.23;;;;;;;14.36;54.09;101536.06;5093210;28;20184;-77
2024/03/20 02:02:51;;;;;;;19.43;17.53;;;;;;;14.25;53.76;101535.13;5094390;28;20421;-77
2024/03/20 02:05:17;;;;;;;19.60;17.50;;;;;;;14.17;53.92;101536.78;5094166;28;20399;-76
2024/03/20 02:07:43;;;;;;;21.60;17.87;;;;;;;13.88;53.97;101533.09;5093600;28;20417;-75
2024/03/20 02:10:09;;;;;;;18.50;16.30;;;;;;;13.75;53.96;101537.31;5093680;28;20418;-76
2024/03/20 02:12:34;;;;;;;18.80;16.80;;;;;;;13.58;54.16;101531.03;5093926;28;20204;-77
2024/03/20 02:15:08;;;;;;;18.80;16.57;;;;;;;13.63;54.32;101532.84;5093000;28;20578;-76
2024/03/20 02:17:34;;;;;;;18.30;16.40;;;;;;;13.85;53.61;101532.19;5092308;28;20239;-77
2024/03/20 02:19:59;;;;;;;19.57;16.40;;;;;;;13.70;54.10;101520.69;5092640;28;20489;-75
2024/03/20 02:22:24;;;;;;;19.23;17.20;;;;;;;13.83;53.79;101529.53;5093690;28;20634;-76
2024/03/20 02:24:49;;;;;;;18.97;17.00;;;;;;;14.23;52.94;101518.50;5093946;28;20172;-76
2024/03/20 02:27:15;;;;;;;22.63;18.17;;;;;;;14.17;52.87;101526.28;5093678;28;20255;-76
2024/03/20 02:29:40;;;;;;;18.27;16.37;;;;;;;14.03;53.23;101524.47;5093179;28;20215;-76
2024/03/20 02:32:05;;;;;;;20.47;18.27;;;;;;;14.35;52.65;101518.56;5093249;28;20324;-76
2024/03/20 02:34:31;;;;;;;19.10;16.20;;;;;;;14.13;52.95;101523.66;5093200;28;20191;-76
2024/03/20 02:36:56;;;;;;;19.80;15.70;;;;;;;14.20;53.00;101521.09;5093281;28;20177;-76
2024/03/20 02:39:21;;;;;;;19.07;17.07;;;;;;;14.24;52.75;101515.00;5093481;28;20176;-76
2024/03/20 02:41:47;;;;;;;19.30;16.50;;;;;;;14.15;52.95;101523.66;5084220;28;20264;-76
2024/03/20 02:44:14;;;;;;;19.60;17.50;;;;;;;14.03;53.21;101524.47;5073099;28;20549;-76
2024/03/20 02:46:39;;;;;;;18.37;16.47;;;;;;;14.33;52.47;101520.31;5072909;28;20173;-76
2024/03/20 02:49:05;;;;;;;17.90;16.20;;;;;;;14.32;52.61;101519.41;5072833;28;20401;-76
2024/03/20 02:51:30;;;;;;;19.00;17.00;;;;;;;14.42;52.63;101516.84;5072982;28;20173;-76
2024/03/20 02:53:55;;;;;;;19.53;17.50;;;;;;;14.29;52.58;101508.91;5072978;28;20652;-76
2024/03/20 02:56:21;;;;;;;19.60;17.57;;;;;;;14.34;52.72;101508.06;5073643;28;20697;-77
2024/03/20 02:58:46;;;;;;;21.60;17.73;;;;;;;14.30;52.65;101509.78;5073916;28;20177;-76
2024/03/20 03:01:11;;;;;;;17.80;16.00;;;;;;;14.38;52.38;101504.59;5073723;28;20193;-77
2024/03/20 03:03:37;;;;;;;19.97;17.87;;;;;;;14.44;52.23;101500.25;5077531;28;20722;-74
2024/03/20 03:06:02;;;;;;;20.20;18.10;;;;;;;14.43;52.37;101503.75;5081125;28;20247;-76
2024/03/20 03:08:27;;;;;;;19.63;17.30;;;;;;;14.39;52.42;101506.34;5078786;28;20176;-76
2024/03/20 03:10:54;;;;;;;19.37;17.37;;;;;;;14.48;52.29;101507.28;5076549;28;20195;-76
2024/03/20 03:13:20;;;;;;;21.90;19.57;;;;;;;14.54;52.18;101516.06;5077000;28;20172;-75
2024/03/20 03:15:45;;;;;;;20.13;18.07;;;;;;;14.39;52.34;101509.84;5076079;28;20462;-76
2024/03/20 03:18:11;;;;;;;21.90;19.70;;;;;;;14.53;52.33;101509.06;5077025;28;20196;-75
2024/03/20 03:20:36;;;;;;;21.80;19.47;;;;;;;14.34;52.53;101508.94;5076357;28;20195;-77
2024/03/20 03:23:02;;;;;;;23.53;19.70;;;;;;;14.28;52.86;101504.53;5077675;28;20648;-75
2024/03/20 03:25:27;;;;;;;26.50;23.20;;;;;;;14.29;52.57;101506.28;5077654;28;20165;-75
2024/03/20 03:27:52;;;;;;;23.23;20.80;;;;;;;14.37;52.48;101502.84;5076987;28;20652;-76
2024/03/20 03:30:18;;;;;;;21.30;19.10;;;;;;;14.33;52.71;101499.34;5076166;28;20553;-76
2024/03/20 03:32:43;;;;;;;20.80;18.70;;;;;;;14.07;52.93;101507.00;5076822;28;20682;-76
2024/03/20 03:35:09;;;;;;;24.63;18.93;;;;;;;14.15;52.97;101508.84;5076704;28;20212;-76
2024/03/20 03:37:35;;;;;;;19.50;17.50;;;;;;;14.15;52.88;101503.59;5075864;28;20169;-76
2024/03/20 03:40:01;;;;;;;21.40;19.20;;;;;;;14.21;52.71;101500.13;5077006;28;20610;-77
2024/03/20 03:42:27;;;;;;;23.20;19.07;;;;;;;14.02;53.33;101504.34;5090741;28;20501;-76
2024/03/20 03:44:52;;;;;;;22.23;18.10;;;;;;;14.24;52.73;101507.13;5096311;28;20413;-77
2024/03/20 03:47:18;;;;;;;21.27;18.97;;;;;;;14.47;52.60;101507.28;5096531;28;20398;-77
2024/03/20 03:49:43;;;;;;;57.07;41.80;;;;;;;14.30;52.64;101504.53;5096125;28;20282;-75
2024/03/20 03:52:08;;;;;;;56.93;41.00;;;;;;;14.28;52.88;101503.66;5097643;28;20271;-77
2024/03/20 03:54:34;;;;;;;30.00;25.57;;;;;;;14.35;52.70;101508.06;5096663;28;20191;-76
2024/03/20 03:57:00;;;;;;;53.93;41.57;;;;;;;14.30;52.91;101512.41;5096833;28;20172;-76
2024/03/20 03:59:26;;;;;;;22.73;19.50;;;;;;;14.25;53.00;101506.28;5096100;28;20678;-76
2024/03/20 04:01:51;;;;;;;19.50;17.60;;;;;;;14.44;52.86;101513.38;5095973;28;20467;-76
2024/03/20 04:04:16;;;;;;;22.30;16.73;;;;;;;14.36;52.88;101512.47;5096041;28;20190;-76
2024/03/20 04:06:42;;;;;;;20.03;17.93;;;;;;;14.33;52.76;101507.19;5096592;28;20246;-77
2024/03/20 04:09:10;;;;;;;22.10;18.60;;;;;;;14.19;53.18;101508.84;5096310;28;20279;-77
2024/03/20 04:11:37;;;;;;;22.87;18.30;;;;;;;14.33;52.98;101512.44;5096458;28;20897;-75
2024/03/20 04:14:02;;;;;;;19.90;17.83;;;;;;;14.52;52.42;101507.28;5096827;28;20406;-76
2024/03/20 04:16:28;;;;;;;18.67;16.80;;;;;;;14.26;52.87;101514.16;5113024;22;20514;-80
2024/03/20 04:18:53;;;;;;;20.43;17.90;;;;;;;14.21;53.02;101515.00;5103969;28;20652;-82
2024/03/20 04:21:20;;;;;;;21.23;18.30;;;;;;;14.08;53.27;101516.63;5116996;28;20236;-81
2024/03/20 04:23:46;;;;;;;21.03;17.47;;;;;;;13.72;54.03;101518.97;5114742;28;20202;-82
2024/03/20 04:26:11;;;;;;;19.63;17.63;;;;;;;14.07;53.67;101517.50;5127931;28;20499;-82
2024/03/20 04:28:36;;;;;;;20.20;18.00;;;;;;;13.71;54.15;101514.59;5127345;28;20164;-82
2024/03/20 04:31:05;;;;;;;20.30;17.80;;;;;;;13.68;54.42;101522.41;5123524;28;20228;-82
2024/03/20 04:33:30;;;;;;;19.20;17.20;;;;;;;13.87;53.66;101514.69;5121211;28;20174;-82
2024/03/20 04:35:56;;;;;;;23.30;18.37;;;;;;;13.80;53.91;101516.38;5123268;28;20535;-82
2024/03/20 04:38:21;;;;;;;19.73;17.80;;;;;;;13.90;53.97;101517.38;5121423;28;20180;-83
2024/03/20 04:40:46;;;;;;;20.80;18.53;;;;;;;13.88;54.01;101513.84;5136556;27;20164;-82
2024/03/20 04:43:11;;;;;;;20.10;18.00;;;;;;;13.96;53.78;101514.78;5137861;28;20171;-82
2024/03/20 04:45:37;;;;;;;18.47;16.67;;;;;;;13.85;53.91;101512.06;5131063;27;20559;-82
2024/03/20 04:48:02;;;;;;;21.50;17.37;;;;;;;14.35;52.66;101509.84;5125674;28;20172;-82
2024/03/20 04:50:27;;;;;;;23.83;18.73;;;;;;;14.21;52.94;101517.63;5126747;28;20199;-83
2024/03/20 04:52:53;;;;;;;19.53;17.53;;;;;;;14.07;53.07;101518.38;5120894;28;20587;-82
2024/03/20 04:55:18;;;;;;;22.83;17.80;;;;;;;14.35;52.65;101517.69;5125301;28;20196;-82
2024/03/20 04:57:44;;;;;;;18.77;16.40;;;;;;;14.14;53.07;101520.19;5124862;28;20167;-82
2024/03/20 05:00:16;;;;;;;19.47;17.37;;;;;;;14.08;53.55;101521.88;5125924;28;20168;-83
2024/03/20 05:02:42;;;;;;;20.00;17.10;;;;;;;14.15;53.21;101514.06;5128548;28;20384;-83
2024/03/20 05:05:09;;;;;;;20.27;18.10;;;;;;;14.03;53.72;101519.22;5126767;28;20433;-81
2024/03/20 05:07:34;;;;;;;20.77;16.70;;;;;;;14.27;53.36;101526.38;5128242;28;20494;-83
2024/03/20 05:10:00;;;;;;;19.33;17.10;;;;;;;14.21;53.32;101515.00;5125710;28;20409;-83
2024/03/20 05:12:25;;;;;;;19.80;16.90;;;;;;;14.07;53.66;101530.59;5119737;28;20258;-82
2024/03/20 05:14:50;;;;;;;19.60;17.60;;;;;;;14.17;53.53;101526.28;5119577;28;20195;-81
2024/03/20 05:17:16;;;;;;;20.13;17.93;;;;;;;14.14;53.94;101528.03;5123720;28;20182;-82
2024/03/20 05:19:41;;;;;;;21.00;18.30;;;;;;;14.31;53.72;101520.31;5121030;28;20168;-82
2024/03/20 05:22:06;;;;;;;20.20;17.77;;;;;;;14.12;53.93;101521.03;5122653;28;20171;-82
2024/03/20 05:24:31;;;;;;;23.07;17.50;;;;;;;13.96;54.31;101523.53;5122225;28;20251;-82
2024/03/20 05:26:57;;;;;;;26.40;20.33;;;;;;;14.23;54.33;101521.09;5123527;28;20163;-82
2024/03/20 05:29:22;;;;;;;23.63;21.10;;;;;;;14.36;53.72;101532.56;5122582;28;20632;-82
2024/03/20 05:31:48;;;;;;;21.87;18.77;;;;;;;14.58;53.79;101528.31;5120255;28;20179;-81
2024/03/20 05:34:13;;;;;;;20.00;17.87;;;;;;;14.49;54.18;101529.13;5123679;28;20599;-81
2024/03/20 05:36:39;;;;;;;22.83;18.97;;;;;;;14.25;54.62;101525.50;5130051;27;20207;-82
2024/03/20 05:39:05;;;;;;;23.87;19.40;;;;;;;14.33;55.25;101525.56;5135262;28;20540;-82
2024/03/20 05:41:30;;;;;;;21.90;19.10;;;;;;;14.30;55.25;101522.91;5134232;28;20160;-82
2024/03/20 05:43:56;;;;;;;26.50;22.87;;;;;;;14.15;55.15;101527.19;5127402;27;20968;-82
2024/03/20 05:46:22;;;;;;;23.70;20.23;;;;;;;14.18;54.86;101533.31;5124028;28;20645;-81
2024/03/20 05:48:47;;;;;;;20.20;18.03;;;;;;;14.26;54.86;101532.50;5126935;28;20546;-82
2024/03/20 05:51:12;;;;;;;21.07;18.33;;;;;;;14.40;54.48;101529.09;5126824;28;20163;-82
2024/03/20 05:53:38;;;;;;;22.67;18.27;;;;;;;14.47;54.40;101539.63;5130697;28;20176;-82
2024/03/20 05:56:04;;;;;;;21.90;18.97;;;;;;;13.90;55.19;101536.59;5131736;28;20203;-81
2024/03/20 05:58:29;;;;;;;21.40;18.40;;;;;;;13.87;55.46;101539.19;5133063;28;20175;-81
2024/03/20 06:00:55;;;;;;;21.47;18.30;;;;;;;13.92;55.26;101539.22;5133760;28;20239;-80
2024/03/20 06:03:20;;;;;;;20.30;18.20;;;;;;;13.96;55.17;101543.63;5131450;28;20171;-82
2024/03/20 06:05:47;;;;;;;21.00;18.80;;;;;;;13.84;55.52;101546.13;5134605;28;20175;-80
2024/03/20 06:08:12;;;;;;;20.97;18.67;;;;;;;13.84;55.50;101546.13;5134060;28;20159;-80
2024/03/20 06:10:38;;;;;;;21.23;18.90;;;;;;;13.84;55.38;101546.13;5134512;28;20406;-82
2024/03/20 06:13:04;;;;;;;29.17;23.20;;;;;;;13.98;55.19;101555.00;5130628;28;20181;-83
2024/03/20 06:15:29;;;;;;;35.30;27.87;;;;;;;14.08;55.18;101554.19;5131313;28;20211;-83
2024/03/20 06:17:54;;;;;;;26.53;21.50;;;;;;;14.29;54.54;101537.75;5127507;28;20640;-82
2024/03/20 06:20:20;;;;;;;42.57;33.27;;;;;;;14.31;54.48;101546.53;5128465;28;20228;-82
2024/03/20 06:22:46;;;;;;;26.70;22.13;;;;;;;14.30;54.62;101554.38;5123009;28;20184;-83
2024/03/20 06:25:12;;;;;;;21.07;18.47;;;;;;;14.48;54.37;101553.63;5124023;28;20278;-82
2024/03/20 06:27:38;;;;;;;25.47;22.40;;;;;;;14.47;54.43;101558.00;5123878;28;20171;-84
2024/03/20 06:30:11;;;;;;;38.83;31.10;;;;;;;14.39;54.19;101549.19;5120170;28;20409;-82
2024/03/20 06:32:37;;;;;;;45.27;36.73;;;;;;;14.46;54.34;101557.97;5116535;28;20228;-84
2024/03/20 06:35:03;;;;;;;44.30;35.37;;;;;;;14.33;54.47;101562.28;5113019;27;20454;-82
2024/03/20 06:37:29;;;;;;;22.70;20.30;;;;;;;13.92;55.01;101561.09;5112754;28;20526;-83
2024/03/20 06:39:54;;;;;;;24.53;19.27;;;;;;;14.09;55.42;101565.59;5120869;28;20927;-81
2024/03/20 06:42:22;;;;;;;22.37;20.07;;;;;;;14.00;55.51;101558.50;5121253;28;20219;-82
2024/03/20 06:44:48;;;;;;;25.80;20.07;;;;;;;14.14;55.63;101559.50;5120515;28;20274;-83
2024/03/20 06:47:14;;;;;;;24.17;20.40;;;;;;;14.02;56.40;101558.50;5107577;28;81137;-81
2024/03/20 06:49:39;;;;;;;24.40;20.23;;;;;;;14.35;55.42;101557.91;5078584;28;20240;-82
2024/03/20 06:52:05;;;;;;;26.83;20.60;;;;;;;14.49;55.09;101555.38;5078104;28;20482;-83
2024/03/20 06:54:30;;;;;;;24.57;20.80;;;;;;;14.53;55.34;101561.53;5079305;28;20176;-81
2024/03/20 06:57:01;;;;;;;21.40;18.53;;;;;;;14.76;55.07;101567.84;5081511;28;20187;-81
2024/03/20 06:59:29;;;;;;;23.27;20.87;;;;;;;14.94;54.63;101566.19;5080348;28;20367;-80
2024/03/20 07:01:55;;;;;;;27.20;21.40;;;;;;;14.70;55.19;101570.41;5078696;28;20904;-82
2024/03/20 07:04:20;;;;;;;24.33;20.93;;;;;;;14.78;55.18;101571.34;5079790;28;20422;-82
2024/03/20 07:06:45;;;;;;;23.60;21.03;;;;;;;14.65;55.65;101567.78;5079485;28;20234;-83
2024/03/20 07:09:11;;;;;;;22.50;20.20;;;;;;;14.84;55.30;101572.25;5081827;28;20693;-83
2024/03/20 07:11:37;;;;;;;22.73;20.33;;;;;;;15.03;54.75;101579.34;5077912;28;20626;-84
2024/03/20 07:14:02;;;;;;;24.83;22.20;;;;;;;14.96;55.21;101574.94;5081202;28;20645;-82
2024/03/20 07:16:27;;;;;;;28.90;22.10;;;;;;;15.13;55.24;101570.63;5078507;28;20219;-82
2024/03/20 07:18:53;;;;;;;26.90;22.53;;;;;;;14.97;55.46;101571.44;5078606;28;20169;-83
2024/03/20 07:21:20;;;;;;;24.67;21.50;;;;;;;15.20;54.89;101566.28;5079042;28;20177;-84
2024/03/20 07:23:46;;;;;;;28.37;24.00;;;;;;;15.06;55.18;101573.22;5079487;28;20665;-82
2024/03/20 07:26:11;;;;;;;32.40;25.90;;;;;;;14.99;55.60;101572.31;5078109;28;20423;-84
2024/03/20 07:28:38;;;;;;;26.03;21.50;;;;;;;14.96;55.24;101572.31;5077932;28;20267;-83
2024/03/20 07:31:03;;;;;;;25.40;22.10;;;;;;;15.08;55.08;101572.34;5078323;28;20169;-82
2024/03/20 07:33:29;;;;;;;27.47;23.33;;;;;;;15.20;54.71;101568.03;5084532;28;20414;-83
2024/03/20 07:35:55;;;;;;;25.60;22.20;;;;;;;15.19;54.88;101567.16;5080781;28;20207;-81
2024/03/20 07:38:20;;;;;;;22.63;20.20;;;;;;;14.89;55.63;101573.16;5082334;28;20628;-81
2024/03/20 07:40:51;;;;;;;24.80;22.10;;;;;;;15.20;54.89;101576.78;5085132;28;20433;-82
2024/03/20 07:43:16;;;;;;;26.93;23.70;;;;;;;15.31;54.88;101575.06;5103005;28;20172;-81
2024/03/20 07:45:41;;;;;;;26.87;23.20;;;;;;;15.14;54.40;101577.66;5089435;28;20450;-80
2024/03/20 07:48:07;;;;;;;27.87;24.97;;;;;;;15.40;54.42;101573.38;5087689;28;20176;-81
2024/03/20 07:50:33;;;;;;;27.93;24.27;;;;;;;15.24;54.54;101575.06;5091955;28;20164;-81
2024/03/20 07:52:58;;;;;;;26.40;23.23;;;;;;;14.71;56.13;101582.69;5093602;28;20200;-80
2024/03/20 07:55:24;;;;;;;26.37;23.53;;;;;;;15.32;54.77;101582.09;5086435;28;20200;-81
2024/03/20 07:57:49;;;;;;;25.93;23.27;;;;;;;14.98;55.57;101583.72;5085577;28;20673;-81
2024/03/20 08:00:27;;;;;;;24.67;22.03;;;;;;;15.14;55.34;101585.53;5085337;28;20177;-82
2024/03/20 08:02:53;;;;;;;26.77;23.93;;;;;;;15.54;54.80;101587.41;5083205;28;20169;-81
2024/03/20 08:05:18;;;;;;;30.43;23.77;;;;;;;15.89;53.78;101589.25;5085596;28;20423;-81
2024/03/20 08:07:43;;;;;;;26.93;22.57;;;;;;;16.02;53.28;101592.78;5094682;28;20184;-81
2024/03/20 08:10:09;;;;;;;26.37;23.67;;;;;;;15.97;53.53;101594.53;5090061;28;20279;-81
2024/03/20 08:12:36;;;;;;;27.30;23.73;;;;;;;16.31;52.71;101591.91;5090055;28;20228;-83
2024/03/20 08:15:03;;;;;;;31.13;24.60;;;;;;;16.40;52.69;101589.28;5085573;28;20259;-81
2024/03/20 08:17:29;;;;;;;33.60;29.97;;;;;;;16.04;53.31;101604.19;5083049;28;20416;-81
2024/03/20 08:19:54;;;;;;;29.83;25.90;;;;;;;15.97;53.72;101598.03;5082163;28;20449;-81
2024/03/20 08:22:20;;;;;;;28.80;24.23;;;;;;;15.92;53.61;101593.66;5084080;28;20176;-81
2024/03/20 08:24:46;;;;;;;27.27;24.10;;;;;;;15.76;54.44;101598.88;5082032;28;20189;-81
2024/03/20 08:27:12;;;;;;;26.40;23.60;;;;;;;15.66;54.92;101602.34;5079904;28;20168;-82
2024/03/20 08:29:37;;;;;;;28.53;23.97;;;;;;;15.64;54.67;101602.34;5079884;28;20494;-82
2024/03/20 08:32:04;;;;;;;26.50;23.67;;;;;;;15.84;54.10;101593.63;5077632;28;20217;-81
2024/03/20 08:34:30;;;;;;;27.20;23.80;;;;;;;15.64;54.18;101604.06;5078149;28;20288;-81
2024/03/20 08:36:56;;;;;;;27.20;23.30;;;;;;;15.64;54.36;101597.09;5082059;28;20502;-81
2024/03/20 08:39:21;;;;;;;25.97;23.20;;;;;;;15.75;53.99;101602.38;5077600;28;20172;-81
2024/03/20 08:41:46;;;;;;;28.90;25.80;;;;;;;15.64;54.45;101597.09;5077182;28;20183;-82
2024/03/20 08:44:12;;;;;;;26.77;23.87;;;;;;;15.95;54.10;101596.28;5077272;28;20165;-81
2024/03/20 08:46:41;;;;;;;32.40;25.40;;;;;;;14.99;55.61;101606.44;5082480;28;20213;-80
2024/03/20 08:49:06;;;;;;;30.10;25.30;;;;;;;15.72;54.85;101604.09;5079902;28;20709;-81
2024/03/20 08:51:32;;;;;;;30.90;26.13;;;;;;;15.91;54.08;101592.78;5077216;28;20446;-82
2024/03/20 08:53:57;;;;;;;26.80;23.90;;;;;;;16.32;53.34;101598.94;5076655;28;20237;-82
2024/03/20 08:56:23;;;;;;;28.13;25.00;;;;;;;16.16;53.99;101600.69;5077006;28;20207;-81
2024/03/20 08:58:50;;;;;;;29.30;25.07;;;;;;;16.77;52.73;101597.09;5077642;28;20827;-81
2024/03/20 09:01:15;;;;;;;29.37;26.17;;;;;;;16.76;53.08;101599.75;5080246;28;20180;-82
2024/03/20 09:03:40;;;;;;;28.67;25.03;;;;;;;16.65;53.27;101597.13;5079894;28;20457;-81
2024/03/20 09:06:06;;;;;;;26.27;23.40;;;;;;;16.51;53.33;101594.53;5076127;28;20272;-81
2024/03/20 09:08:31;;;;;;;30.47;24.70;;;;;;;16.45;53.48;101591.88;5075951;28;20188;-82
2024/03/20 09:10:56;;;;;;;27.70;24.70;;;;;;;16.50;53.33;101598.03;5076120;28;20211;-82
2024/03/20 09:13:22;;;;;;;31.57;24.70;;;;;;;16.44;53.42;101598.03;5077454;28;20226;-83
2024/03/20 09:15:48;;;;;;;28.13;25.20;;;;;;;16.63;53.24;101598.91;5078554;28;20204;-82
2024/03/20 09:18:13;;;;;;;29.13;25.90;;;;;;;16.75;53.04;101604.16;5078630;28;20177;-83
2024/03/20 09:20:40;;;;;;;28.60;25.57;;;;;;;16.61;53.32;101600.66;5077367;28;20183;-83
2024/03/20 09:23:07;;;;;;;30.80;25.67;;;;;;;17.06;52.61;101606.72;5077903;28;20646;-83
2024/03/20 09:25:32;;;;;;;29.07;25.97;;;;;;;17.24;51.68;101597.88;5077722;28;20480;-82
2024/03/20 09:27:59;;;;;;;31.00;25.37;;;;;;;17.51;52.22;101596.84;5077255;28;20411;-83
2024/03/20 09:30:25;;;;;;;32.33;26.00;;;;;;;17.67;51.46;101599.38;5076654;28;20702;-83
2024/03/20 09:32:50;;;;;;;31.10;27.47;;;;;;;17.57;51.80;101601.22;5077471;28;20494;-82
2024/03/20 09:35:16;;;;;;;31.27;27.90;;;;;;;17.73;51.40;101607.28;5073595;28;20759;-81
2024/03/20 09:37:41;;;;;;;28.13;25.13;;;;;;;18.05;51.48;101598.31;5076617;28;20164;-82
2024/03/20 09:40:10;;;;;;;30.60;27.30;;;;;;;18.74;49.73;101587.97;5077115;28;20681;-82
2024/03/20 09:42:37;;;;;;;29.77;26.67;;;;;;;18.88;49.18;101590.50;5076217;28;20184;-81
2024/03/20 09:45:04;;;;;;;30.43;26.63;;;;;;;18.78;49.46;101581.75;5082438;28;20434;-81
2024/03/20 09:47:31;;;;;;;31.60;25.67;;;;;;;18.82;49.66;101587.00;5077909;28;20442;-81
2024/03/20 09:49:59;;;;;;;28.23;25.33;;;;;;;18.48;49.80;101592.66;5077895;28;20414;-81
2024/03/20 09:52:25;;;;;;;34.13;26.37;;;;;;;19.07;48.95;101583.25;5097033;28;20415;-81
2024/03/20 09:54:54;;;;;;;29.87;26.67;;;;;;;19.11;48.89;101587.59;5083205;28;20562;-82
2024/03/20 09:57:24;;;;;;;31.10;25.60;;;;;;;18.84;48.95;101585.22;5082266;28;20469;-82
2024/03/20 09:59:52;;;;;;;29.70;26.67;;;;;;;19.03;48.33;101587.69;5080646;28;20502;-82
2024/03/20 10:02:18;;;;;;;29.20;26.07;;;;;;;18.94;48.70;101586.03;5083893;28;20395;-82
2024/03/20 10:04:44;;;;;;;31.73;26.17;;;;;;;18.65;49.53;101583.69;5099094;28;20522;-83
2024/03/20 10:07:14;;;;;;;27.80;24.50;;;;;;;18.95;49.05;101589.53;5080188;28;20465;-83
2024/03/20 10:09:41;;;;;;;28.93;26.13;;;;;;;19.45;48.19;101589.81;5080790;28;20486;-84
2024/03/20 10:12:08;;;;;;;26.90;24.20;;;;;;;19.47;47.65;101577.41;5079461;28;20412;-83
2024/03/20 10:14:34;;;;;;;33.90;29.17;;;;;;;19.58;47.62;101585.19;5079679;28;20438;-81
2024/03/20 10:17:17;;;;;;;29.63;26.67;;;;;;;19.58;47.67;101587.84;5097523;22;20589;-76
2024/03/20 10:19:44;;;;;;;29.00;26.00;;;;;;;19.02;48.83;101584.19;5072667;28;20226;-76
2024/03/20 10:22:10;;;;;;;30.03;26.80;;;;;;;19.50;47.53;101578.25;5072489;28;20407;-77
2024/03/20 10:24:36;;;;;;;27.67;24.90;;;;;;;19.33;48.10;101574.97;5072841;28;20426;-77
2024/03/20 10:27:03;;;;;;;32.27;26.77;;;;;;;20.95;46.52;101560.84;5072254;28;20291;-76
2024/03/20 10:29:29;;;;;;;27.47;24.40;;;;;;;19.47;47.71;101575.66;5072405;28;20420;-76
2024/03/20 10:31:56;;;;;;;29.17;26.27;;;;;;;19.26;47.63;101570.66;5072548;28;20407;-76
2024/03/20 10:34:22;;;;;;;29.60;26.40;;;;;;;20.65;45.71;101568.47;5074229;28;20947;-77
2024/03/20 10:36:53;;;;;;;28.73;25.43;;;;;;;21.08;46.67;101557.03;5072848;28;20489;-77
2024/03/20 10:39:23;;;;;;;30.13;25.33;;;;;;;21.16;45.33;101554.19;5073227;28;20499;-76
2024/03/20 10:41:49;;;;;;;27.63;24.77;;;;;;;20.97;45.29;101567.88;5050863;28;20428;-76
2024/03/20 10:44:16;;;;;;;27.33;23.67;;;;;;;20.33;46.58;101559.34;5051765;28;20427;-77
2024/03/20 10:46:51;;;;;;;27.83;25.00;;;;;;;20.78;45.24;101558.53;5052890;28;20939;-76
2024/03/20 10:49:23;;;;;;;25.90;23.17;;;;;;;20.35;46.31;101560.19;5052022;28;20459;-77
2024/03/20 10:51:51;;;;;;;25.57;22.70;;;;;;;20.64;45.68;101556.97;5052904;28;20415;-76
2024/03/20 10:54:17;;;;;;;27.30;24.40;;;;;;;20.63;45.44;101554.38;5052086;28;20856;-76
2024/03/20 10:56:46;;;;;;;26.20;23.40;;;;;;;21.18;44.57;101552.41;5052097;28;20550;-75
2024/03/20 10:59:19;;;;;;;24.53;22.03;;;;;;;20.72;45.25;101561.31;5051707;28;20443;-76
2024/03/20 11:02:06;;;;;;;24.27;21.57;;;;;;;21.10;44.99;101557.84;5051824;28;20415;-76
2024/03/20 11:04:34;;;;;;;21.57;19.40;;;;;;;20.93;44.77;101567.94;5050609;28;20979;-76